createdAt,value
2022-12-27T00:00:06.918Z,100.00
2022-12-27T00:02:40.326Z,100.00
2022-12-27T00:05:09.277Z,100.00
2022-12-27T00:07:36.110Z,100.00
2022-12-27T00:10:03.671Z,100.00
2022-12-27T00:12:30.785Z,100.00
2022-12-27T00:14:57.405Z,100.00
2022-12-27T00:17:24.295Z,100.00
2022-12-27T00:19:56.792Z,100.00
2022-12-27T00:22:23.585Z,100.00
2022-12-27T00:24:50.954Z,100.00
2022-12-27T00:27:17.757Z,100.00
2022-12-27T00:29:44.427Z,100.00
2022-12-27T00:32:11.016Z,100.00
2022-12-27T00:34:37.553Z,100.00
2022-12-27T00:37:04.182Z,100.00
2022-12-27T00:39:30.883Z,100.00
2022-12-27T00:41:57.556Z,100.00
2022-12-27T00:44:24.088Z,100.00
2022-12-27T00:46:50.639Z,99.30
2022-12-27T00:49:17.305Z,99.46
2022-12-27T00:51:44.019Z,99.20
2022-12-27T00:54:10.718Z,99.25
2022-12-27T00:56:37.564Z,98.68
2022-12-27T00:59:05.415Z,98.54
2022-12-27T01:01:35.407Z,98.61
2022-12-27T01:04:02.899Z,98.37
2022-12-27T01:06:32.259Z,98.41
2022-12-27T01:09:00.532Z,98.01
2022-12-27T01:11:28.902Z,97.77
2022-12-27T01:13:57.962Z,98.22
2022-12-27T01:16:26.178Z,97.75
2022-12-27T01:18:54.202Z,97.85
2022-12-27T01:21:23.188Z,97.83
2022-12-27T01:23:50.526Z,97.47
2022-12-27T01:26:20.419Z,97.61
2022-12-27T01:28:49.592Z,97.58
2022-12-27T01:31:22.443Z,97.27
2022-12-27T01:33:49.439Z,97.46
2022-12-27T01:36:23.510Z,97.42
2022-12-27T01:38:50.932Z,97.35
2022-12-27T01:41:49.723Z,97.08
2022-12-27T01:44:43.416Z,97.23
2022-12-27T01:47:18.236Z,96.60
2022-12-27T01:49:59.513Z,96.12
2022-12-27T01:52:34.959Z,96.21
2022-12-27T01:55:24.786Z,96.67
2022-12-27T01:57:55.534Z,97.31
2022-12-27T02:00:22.853Z,96.72
2022-12-27T02:02:51.496Z,96.33
2022-12-27T02:05:20.574Z,96.33
2022-12-27T02:07:53.247Z,96.54
2022-12-27T02:10:20.791Z,96.60
2022-12-27T02:12:47.705Z,97.25
2022-12-27T02:15:14.254Z,96.88
2022-12-27T02:17:41.025Z,96.97
2022-12-27T02:20:22.856Z,96.79
2022-12-27T02:23:08.012Z,96.94
2022-12-27T02:25:58.765Z,97.00
2022-12-27T02:28:56.302Z,96.87
2022-12-27T02:31:33.240Z,97.20
2022-12-27T02:34:04.497Z,97.06
2022-12-27T02:36:35.842Z,96.91
2022-12-27T02:39:03.954Z,97.03
2022-12-27T02:41:52.303Z,97.14
2022-12-27T02:44:38.683Z,97.48
2022-12-27T02:47:42.514Z,97.40
2022-12-27T02:50:30.765Z,97.44
2022-12-27T02:53:30.401Z,97.15
2022-12-27T02:56:39.098Z,97.12
2022-12-27T02:59:26.713Z,96.86
2022-12-27T03:02:40.268Z,96.60
2022-12-27T03:05:24.462Z,96.70
2022-12-27T03:08:24.461Z,97.19
2022-12-27T03:11:19.306Z,97.31
2022-12-27T03:14:23.644Z,97.25
2022-12-27T03:16:57.870Z,97.45
2022-12-27T03:20:10.373Z,97.99
2022-12-27T03:22:58.179Z,97.67
2022-12-27T03:25:29.107Z,98.03
2022-12-27T03:28:44.406Z,98.29
2022-12-27T03:31:53.116Z,98.13
2022-12-27T03:34:39.823Z,97.71
2022-12-27T03:37:33.318Z,97.88
2022-12-27T03:40:06.621Z,98.61
2022-12-27T03:42:56.743Z,97.80
2022-12-27T03:45:43.297Z,98.12
2022-12-27T03:48:14.232Z,98.63
2022-12-27T03:50:48.904Z,98.74
2022-12-27T03:53:30.970Z,98.58
2022-12-27T03:55:57.984Z,98.39
2022-12-27T03:58:24.769Z,98.53
2022-12-27T04:00:51.343Z,98.60
2022-12-27T04:03:17.966Z,99.04
2022-12-27T04:05:44.610Z,98.76
2022-12-27T04:08:29.925Z,98.65
2022-12-27T04:11:14.986Z,99.02
2022-12-27T04:14:00.263Z,99.58
2022-12-27T04:16:45.589Z,99.24
2022-12-27T04:19:30.966Z,99.61
2022-12-27T04:22:16.314Z,99.14
2022-12-27T04:25:01.325Z,99.27
2022-12-27T04:27:46.612Z,99.11
2022-12-27T04:30:31.440Z,99.69
2022-12-27T04:33:16.602Z,100.00
2022-12-27T04:35:44.537Z,99.79
2022-12-27T04:38:11.087Z,99.99
2022-12-27T04:40:56.051Z,99.87
2022-12-27T04:43:42.035Z,100.00
2022-12-27T04:46:39.420Z,100.00
2022-12-27T04:49:24.784Z,100.00
2022-12-27T04:52:09.625Z,99.81
2022-12-27T04:54:54.710Z,99.59
2022-12-27T04:57:21.394Z,100.00
2022-12-27T05:00:06.450Z,100.00
2022-12-27T05:02:33.672Z,99.82
2022-12-27T05:05:00.545Z,99.76
2022-12-27T05:07:45.406Z,99.90
2022-12-27T05:10:31.172Z,99.97
2022-12-27T05:13:16.384Z,99.60
2022-12-27T05:15:42.980Z,98.51
2022-12-27T05:18:09.881Z,98.41
2022-12-27T05:20:36.563Z,97.80
2022-12-27T05:23:21.707Z,98.52
2022-12-27T05:25:48.294Z,97.42
2022-12-27T05:28:14.916Z,96.77
2022-12-27T05:30:43.930Z,96.02
2022-12-27T05:33:11.028Z,96.05
2022-12-27T05:35:37.671Z,96.42
2022-12-27T05:38:05.062Z,96.13
2022-12-27T05:40:32.226Z,95.66
2022-12-27T05:43:02.862Z,95.62
2022-12-27T05:45:30.243Z,94.90
2022-12-27T05:47:56.825Z,94.83
2022-12-27T05:50:23.438Z,94.15
2022-12-27T05:52:50.383Z,94.57
2022-12-27T05:55:17.269Z,95.04
2022-12-27T05:57:43.897Z,95.27
2022-12-27T06:00:12.202Z,94.63
2022-12-27T06:02:42.532Z,95.15
2022-12-27T06:05:10.620Z,94.76
2022-12-27T06:07:38.479Z,95.25
2022-12-27T06:10:09.323Z,95.20
2022-12-27T06:12:36.406Z,94.45
2022-12-27T06:15:05.035Z,93.77
2022-12-27T06:17:32.138Z,94.86
2022-12-27T06:19:58.799Z,94.04
2022-12-27T06:22:25.488Z,93.60
2022-12-27T06:24:52.195Z,92.94
2022-12-27T06:27:18.825Z,92.71
2022-12-27T06:29:45.498Z,92.64
2022-12-27T06:32:12.041Z,92.56
2022-12-27T06:34:38.650Z,92.35
2022-12-27T06:37:05.174Z,92.46
2022-12-27T06:39:31.784Z,92.53
2022-12-27T06:41:58.422Z,91.89
2022-12-27T06:44:26.276Z,93.00
2022-12-27T06:46:52.992Z,92.19
2022-12-27T06:49:19.594Z,91.96
2022-12-27T06:51:50.373Z,92.62
2022-12-27T06:54:21.216Z,91.96
2022-12-27T06:56:47.663Z,92.41
2022-12-27T06:59:14.455Z,93.33
2022-12-27T07:01:41.766Z,93.09
2022-12-27T07:04:09.313Z,93.52
2022-12-27T07:06:37.504Z,92.94
2022-12-27T07:09:04.764Z,93.01
2022-12-27T07:11:36.708Z,93.06
2022-12-27T07:14:03.773Z,93.88
2022-12-27T07:16:31.043Z,93.37
2022-12-27T07:18:58.902Z,93.33
2022-12-27T07:21:27.689Z,93.18
2022-12-27T07:23:55.419Z,93.52
2022-12-27T07:26:25.943Z,93.29
2022-12-27T07:28:57.388Z,93.04
2022-12-27T07:31:26.461Z,92.90
2022-12-27T07:33:53.407Z,93.23
2022-12-27T07:36:24.234Z,92.59
2022-12-27T07:38:50.835Z,92.16
2022-12-27T07:41:17.945Z,93.23
2022-12-27T07:43:45.042Z,92.69
2022-12-27T07:46:17.981Z,92.89
2022-12-27T07:48:45.843Z,92.43
2022-12-27T07:51:12.559Z,92.82
2022-12-27T07:53:39.339Z,93.01
2022-12-27T07:56:09.479Z,93.05
2022-12-27T07:58:41.030Z,92.46
2022-12-27T08:01:08.971Z,93.01
2022-12-27T08:03:36.414Z,92.56
2022-12-27T08:06:04.112Z,92.38
2022-12-27T08:08:49.904Z,92.90
2022-12-27T08:11:16.459Z,91.88
2022-12-27T08:13:43.131Z,92.71
2022-12-27T08:16:16.141Z,91.96
2022-12-27T08:18:42.931Z,92.14
2022-12-27T08:21:09.543Z,92.46
2022-12-27T08:23:36.106Z,92.31
2022-12-27T08:26:02.730Z,93.00
2022-12-27T08:28:31.579Z,93.11
2022-12-27T08:30:59.590Z,92.60
2022-12-27T08:33:27.249Z,91.91
2022-12-27T08:35:55.031Z,92.46
2022-12-27T08:38:21.876Z,92.80
2022-12-27T08:40:48.602Z,91.80
2022-12-27T08:43:15.620Z,91.85
2022-12-27T08:45:42.376Z,91.64
2022-12-27T08:48:09.107Z,92.17
2022-12-27T08:50:35.927Z,91.22
2022-12-27T08:53:04.414Z,92.03
2022-12-27T08:55:32.180Z,91.81
2022-12-27T08:58:00.125Z,91.29
2022-12-27T09:00:28.402Z,91.25
2022-12-27T09:02:55.228Z,91.09
2022-12-27T09:05:22.568Z,90.97
2022-12-27T09:07:50.002Z,90.78
2022-12-27T09:10:17.232Z,89.74
2022-12-27T09:12:45.559Z,90.21
2022-12-27T09:15:12.940Z,90.69
2022-12-27T09:17:39.758Z,90.71
2022-12-27T09:20:07.835Z,90.58
2022-12-27T09:22:34.725Z,89.79
2022-12-27T09:25:01.355Z,90.14
2022-12-27T09:27:27.951Z,89.96
2022-12-27T09:29:54.535Z,89.18
2022-12-27T09:32:21.047Z,89.57
2022-12-27T09:34:47.611Z,89.12
2022-12-27T09:37:14.170Z,88.49
2022-12-27T09:39:40.734Z,87.74
2022-12-27T09:45:23.005Z,87.33
2022-12-27T09:47:52.570Z,88.05
2022-12-27T09:50:31.249Z,87.71
2022-12-27T09:53:17.602Z,87.36
2022-12-27T09:55:52.034Z,87.04
2022-12-27T09:58:27.440Z,87.35
2022-12-27T10:00:54.114Z,86.29
2022-12-27T10:03:25.431Z,86.68
2022-12-27T10:06:00.511Z,87.26
2022-12-27T10:08:36.262Z,86.58
2022-12-27T10:11:37.697Z,87.63
2022-12-27T10:14:49.964Z,87.01
2022-12-27T10:17:40.134Z,86.42
2022-12-27T10:20:21.628Z,86.24
2022-12-27T10:22:53.058Z,86.26
2022-12-27T10:25:23.403Z,86.34
2022-12-27T10:27:55.401Z,86.10
2022-12-27T10:30:22.621Z,86.21
2022-12-27T10:32:49.854Z,86.37
2022-12-27T10:35:19.435Z,85.45
2022-12-27T10:37:47.723Z,85.28
2022-12-27T10:40:26.077Z,85.65
2022-12-27T10:43:02.935Z,85.74
2022-12-27T10:45:36.582Z,85.18
2022-12-27T10:48:24.166Z,85.52
2022-12-27T10:50:59.181Z,86.02
2022-12-27T10:53:29.975Z,86.87
2022-12-27T10:56:41.876Z,86.68
2022-12-27T10:59:18.586Z,86.66
2022-12-27T11:01:49.971Z,86.87
2022-12-27T11:04:24.679Z,86.44
2022-12-27T11:07:12.385Z,86.02
2022-12-27T11:09:46.279Z,85.24
2022-12-27T11:12:18.352Z,86.16
2022-12-27T11:15:03.212Z,85.43
2022-12-27T11:17:37.420Z,85.20
2022-12-27T11:20:27.610Z,84.78
2022-12-27T11:23:01.787Z,84.97
2022-12-27T11:25:29.988Z,84.53
2022-12-27T11:28:28.838Z,85.19
2022-12-27T11:31:05.326Z,84.34
2022-12-27T11:33:39.947Z,84.04
2022-12-27T11:36:09.736Z,84.44
2022-12-27T11:38:38.444Z,86.65
2022-12-27T11:41:15.384Z,88.90
2022-12-27T11:43:59.413Z,91.64
2022-12-27T11:46:28.554Z,95.25
2022-12-27T11:48:58.519Z,96.04
2022-12-27T11:51:32.391Z,97.12
2022-12-27T11:54:21.606Z,98.21
2022-12-27T11:56:52.785Z,99.44
2022-12-27T11:59:25.580Z,99.98
2022-12-27T12:02:30.116Z,100.00
2022-12-27T12:05:07.339Z,100.00
2022-12-27T12:07:37.135Z,100.00
2022-12-27T12:10:11.361Z,100.00
2022-12-27T12:13:02.564Z,100.00
2022-12-27T12:15:50.580Z,100.00
2022-12-27T12:18:35.780Z,99.81
2022-12-27T12:21:36.805Z,97.89
2022-12-27T12:24:41.206Z,97.51
2022-12-27T12:27:11.054Z,97.44
2022-12-27T12:30:15.457Z,97.53
2022-12-27T12:33:13.021Z,97.31
2022-12-27T12:36:26.857Z,96.70
2022-12-27T12:39:15.113Z,96.37
2022-12-27T12:42:03.167Z,95.52
2022-12-27T12:44:55.939Z,95.40
2022-12-27T12:47:53.152Z,94.66
2022-12-27T12:50:45.627Z,94.21
2022-12-27T12:53:38.223Z,93.71
2022-12-27T12:56:23.162Z,91.94
2022-12-27T12:59:02.240Z,92.00
2022-12-27T13:01:36.333Z,90.55
2022-12-27T13:04:35.847Z,89.51
2022-12-27T13:07:24.742Z,88.94
2022-12-27T13:10:18.169Z,87.80
2022-12-27T13:13:06.905Z,86.27
2022-12-27T13:15:46.872Z,86.06
2022-12-27T13:18:34.767Z,85.77
2022-12-27T13:21:07.127Z,85.80
2022-12-27T13:24:16.925Z,83.82
2022-12-27T13:26:57.627Z,85.48
2022-12-27T13:29:45.633Z,85.00
2022-12-27T13:32:34.031Z,84.56
2022-12-27T13:35:19.936Z,84.03
2022-12-27T13:37:55.146Z,85.09
2022-12-27T13:40:44.914Z,84.54
2022-12-27T13:43:23.277Z,84.65
2022-12-27T13:46:20.850Z,84.42
2022-12-27T13:49:21.350Z,84.92
2022-12-27T13:52:09.873Z,84.21
2022-12-27T13:54:55.268Z,84.33
2022-12-27T13:58:03.532Z,85.25
2022-12-27T14:00:41.826Z,85.32
2022-12-27T14:03:50.991Z,85.88
2022-12-27T14:06:29.960Z,85.05
2022-12-27T14:09:14.788Z,85.95
2022-12-27T14:12:03.842Z,86.14
2022-12-27T14:14:31.999Z,86.45
2022-12-27T14:17:04.499Z,85.56
2022-12-27T14:19:53.145Z,85.79
2022-12-27T14:22:31.784Z,85.70
2022-12-27T14:25:43.670Z,86.54
2022-12-27T14:28:30.141Z,86.96
2022-12-27T14:31:33.349Z,86.51
2022-12-27T14:34:09.808Z,85.78
2022-12-27T14:37:02.139Z,85.99
2022-12-27T14:40:06.547Z,85.63
2022-12-27T14:43:06.205Z,84.49
2022-12-27T14:45:44.833Z,84.56
2022-12-27T14:48:20.730Z,84.83
2022-12-27T14:51:08.072Z,83.92
2022-12-27T14:54:15.428Z,84.02
2022-12-27T14:57:15.654Z,83.30
2022-12-27T15:00:15.815Z,83.42
2022-12-27T15:03:01.561Z,83.54
2022-12-27T15:05:46.525Z,83.99
2022-12-27T15:08:47.278Z,84.37
2022-12-27T15:11:25.987Z,84.65
2022-12-27T15:13:55.711Z,85.12
2022-12-27T15:16:36.789Z,85.70
2022-12-27T15:19:21.994Z,86.06
2022-12-27T15:22:29.082Z,85.87
2022-12-27T15:25:20.015Z,86.29
2022-12-27T15:27:58.721Z,86.90
2022-12-27T15:30:42.078Z,87.14
2022-12-27T15:33:34.039Z,86.78
2022-12-27T15:36:18.336Z,87.23
2022-12-27T15:38:54.018Z,87.46
2022-12-27T15:41:59.498Z,87.75
2022-12-27T15:45:00.469Z,88.50
2022-12-27T15:47:40.081Z,88.29
2022-12-27T15:50:21.754Z,89.08
2022-12-27T15:53:07.189Z,89.15
2022-12-27T15:55:58.448Z,89.32
2022-12-27T15:58:26.178Z,90.20
2022-12-27T16:01:25.661Z,90.49
2022-12-27T16:03:54.262Z,90.69
2022-12-27T16:06:36.010Z,90.32
2022-12-27T16:09:21.047Z,90.86
2022-12-27T16:12:07.598Z,90.89
2022-12-27T16:14:37.546Z,90.53
2022-12-27T16:17:46.019Z,90.28
2022-12-27T16:20:17.232Z,90.47
2022-12-27T16:22:52.305Z,91.02
2022-12-27T16:25:31.924Z,91.35
2022-12-27T16:28:04.455Z,91.65
2022-12-27T16:30:41.009Z,91.32
2022-12-27T16:33:22.670Z,91.76
2022-12-27T16:36:13.783Z,90.90
2022-12-27T16:38:46.705Z,91.10
2022-12-27T16:41:31.301Z,91.72
2022-12-27T16:44:00.859Z,91.90
2022-12-27T16:47:04.534Z,91.75
2022-12-27T16:50:00.252Z,91.29
2022-12-27T16:53:02.660Z,91.29
2022-12-27T16:56:11.310Z,91.12
2022-12-27T16:58:38.739Z,91.28
2022-12-27T17:01:32.308Z,91.10
2022-12-27T17:04:00.773Z,91.12
2022-12-27T17:06:31.760Z,91.22
2022-12-27T17:09:07.889Z,91.40
2022-12-27T17:12:05.019Z,91.35
2022-12-27T17:14:35.892Z,91.56
2022-12-27T17:17:23.735Z,91.23
2022-12-27T17:20:01.345Z,91.56
2022-12-27T17:22:34.448Z,92.12
2022-12-27T17:25:02.664Z,91.92
2022-12-27T17:27:42.597Z,91.54
2022-12-27T17:30:14.711Z,91.52
2022-12-27T17:33:00.198Z,92.34
2022-12-27T17:35:32.701Z,92.11
2022-12-27T17:38:09.377Z,92.10
2022-12-27T17:40:54.777Z,92.11
2022-12-27T17:43:51.042Z,92.00
2022-12-27T17:46:38.940Z,92.89
2022-12-27T17:49:09.505Z,92.80
2022-12-27T17:51:40.862Z,92.88
2022-12-27T17:54:44.574Z,92.79
2022-12-27T17:57:32.147Z,93.35
2022-12-27T17:59:59.845Z,93.81
2022-12-27T18:02:32.701Z,93.70
2022-12-27T18:05:03.159Z,93.80
2022-12-27T18:07:32.471Z,93.98
2022-12-27T18:10:06.036Z,94.33
2022-12-27T18:12:41.476Z,93.71
2022-12-27T18:15:17.884Z,93.79
2022-12-27T18:17:50.509Z,94.04
2022-12-27T18:20:26.359Z,93.97
2022-12-27T18:23:08.860Z,93.80
2022-12-27T18:25:49.928Z,93.53
2022-12-27T18:28:33.694Z,93.33
2022-12-27T18:31:16.053Z,92.86
2022-12-27T18:33:51.562Z,93.38
2022-12-27T18:36:21.170Z,92.96
2022-12-27T18:38:55.291Z,92.82
2022-12-27T18:41:23.442Z,92.73
2022-12-27T18:43:57.173Z,92.82
2022-12-27T18:46:26.862Z,92.58
2022-12-27T18:48:53.892Z,92.08
2022-12-27T18:51:20.843Z,92.34
2022-12-27T18:53:47.503Z,93.24
2022-12-27T18:56:13.883Z,93.19
2022-12-27T18:58:41.781Z,94.19
2022-12-27T19:01:20.624Z,94.33
2022-12-27T19:04:15.152Z,94.07
2022-12-27T19:07:04.784Z,94.64
2022-12-27T19:09:36.020Z,94.83
2022-12-27T19:12:06.088Z,94.96
2022-12-27T19:14:42.745Z,94.86
2022-12-27T19:17:18.371Z,95.51
2022-12-27T19:19:51.333Z,95.24
2022-12-27T19:22:33.316Z,95.89
2022-12-27T19:25:33.398Z,95.79
2022-12-27T19:28:11.874Z,95.74
2022-12-27T19:30:47.776Z,96.31
2022-12-27T19:33:25.672Z,95.76
2022-12-27T19:35:53.196Z,96.01
2022-12-27T19:38:23.290Z,96.01
2022-12-27T19:40:59.489Z,95.74
2022-12-27T19:43:47.497Z,95.74
2022-12-27T19:46:15.018Z,95.89
2022-12-27T19:48:41.755Z,95.71
2022-12-27T19:51:16.158Z,95.65
2022-12-27T19:53:46.180Z,95.30
2022-12-27T19:56:13.016Z,95.89
2022-12-27T19:58:39.629Z,95.60
2022-12-27T20:01:07.004Z,95.52
2022-12-27T20:03:33.783Z,95.85
2022-12-27T20:06:13.257Z,95.23
2022-12-27T20:08:43.880Z,95.18
2022-12-27T20:11:16.266Z,95.06
2022-12-27T20:13:43.027Z,95.45
2022-12-27T20:16:16.553Z,95.24
2022-12-27T20:18:43.976Z,94.77
2022-12-27T20:21:14.190Z,95.02
2022-12-27T20:23:40.975Z,94.90
2022-12-27T20:26:08.176Z,94.75
2022-12-27T20:28:34.909Z,94.85
2022-12-27T20:31:14.469Z,94.16
2022-12-27T20:33:41.553Z,94.66
2022-12-27T20:36:09.076Z,94.30
2022-12-27T20:38:37.767Z,94.19
2022-12-27T20:41:13.787Z,93.98
2022-12-27T20:43:40.529Z,93.83
2022-12-27T20:46:10.628Z,93.77
2022-12-27T20:48:39.227Z,93.48
2022-12-27T20:51:07.848Z,93.27
2022-12-27T20:53:34.921Z,93.00
2022-12-27T20:56:02.314Z,93.17
2022-12-27T20:58:31.153Z,93.12
2022-12-27T21:00:58.779Z,92.84
2022-12-27T21:03:25.946Z,92.48
2022-12-27T21:05:52.445Z,92.55
2022-12-27T21:08:19.423Z,92.17
2022-12-27T21:10:46.066Z,92.20
2022-12-27T21:13:15.617Z,91.83
2022-12-27T21:15:45.924Z,91.80
2022-12-27T21:18:13.662Z,91.25
2022-12-27T21:20:40.408Z,91.87
2022-12-27T21:23:06.984Z,91.50
2022-12-27T21:25:33.666Z,91.13
2022-12-27T21:28:00.204Z,91.18
2022-12-27T21:30:26.932Z,91.33
2022-12-27T21:32:53.505Z,90.87
2022-12-27T21:35:20.299Z,90.86
2022-12-27T21:37:46.774Z,90.12
2022-12-27T21:40:13.309Z,90.99
2022-12-27T21:42:39.947Z,90.69
2022-12-27T21:45:06.931Z,90.48
2022-12-27T21:47:33.431Z,90.06
2022-12-27T21:50:00.046Z,90.37
2022-12-27T21:52:28.911Z,90.11
2022-12-27T21:54:55.776Z,89.80
2022-12-27T21:57:22.385Z,89.95
2022-12-27T21:59:49.292Z,89.47
2022-12-27T22:02:16.150Z,89.36
2022-12-27T22:04:42.814Z,89.77
2022-12-27T22:07:09.288Z,89.86
2022-12-27T22:09:37.017Z,89.78
2022-12-27T22:12:03.645Z,90.26
2022-12-27T22:14:36.626Z,90.20
2022-12-27T22:17:03.667Z,90.28
2022-12-27T22:19:30.325Z,90.00
2022-12-27T22:21:56.934Z,90.19
2022-12-27T22:24:23.464Z,90.44
2022-12-27T22:26:50.526Z,90.76
2022-12-27T22:29:17.936Z,91.10
2022-12-27T22:31:44.577Z,91.18
2022-12-27T22:34:17.956Z,90.82
2022-12-27T22:36:44.669Z,90.41
2022-12-27T22:39:11.274Z,91.04
2022-12-27T22:41:38.048Z,90.58
2022-12-27T22:44:10.143Z,91.39
2022-12-27T22:47:06.816Z,91.28
2022-12-27T22:49:23.612Z,91.05
2022-12-27T22:51:50.286Z,90.28
2022-12-27T22:54:17.040Z,91.30
2022-12-27T22:56:43.892Z,91.24
2022-12-27T22:59:14.967Z,91.19
2022-12-27T23:01:43.128Z,91.10
2022-12-27T23:04:13.338Z,91.48
2022-12-27T23:06:40.881Z,91.25
2022-12-27T23:09:08.133Z,91.32
2022-12-27T23:11:38.151Z,91.95
2022-12-27T23:14:16.583Z,92.12
2022-12-27T23:16:45.840Z,92.00
2022-12-27T23:19:14.067Z,92.18
2022-12-27T23:21:41.194Z,92.34
2022-12-27T23:24:08.767Z,92.58
2022-12-27T23:26:35.783Z,92.49
2022-12-27T23:29:02.652Z,92.67
2022-12-27T23:31:29.399Z,93.26
2022-12-27T23:33:56.302Z,92.97
2022-12-27T23:36:23.367Z,93.29
2022-12-27T23:38:50.356Z,93.12
2022-12-27T23:41:20.585Z,92.71
2022-12-27T23:43:52.611Z,92.43
2022-12-27T23:46:25.100Z,92.62
2022-12-27T23:48:52.363Z,92.97
2022-12-27T23:51:21.188Z,93.16
2022-12-27T23:53:47.732Z,93.09
2022-12-27T23:56:17.256Z,93.29
2022-12-27T23:58:45.112Z,93.11
